Time;durP1;ratioP1;P1;durP2;ratioP2;P2;SDS_P1;SDS_P2;PMS_P1;PMS_P2;Temp;Humidity;BMP_temperature;BMP_pressure;BME280_temperature;BME280_humidity;BME280_pressure;Samples;Min_cycle;Max_cycle;Signal;HPM_P1;HPM_P2
2021/06/17 00:01:05;;;;;;;;;8.75;8.75;;;;;28.33;48.39;100442.59;4975514;28;45458;-77
2021/06/17 00:03:31;;;;;;;;;11.75;9.50;;;;;28.30;48.28;100432.16;4974963;28;45379;-78
2021/06/17 00:05:57;;;;;;;;;9.00;8.75;;;;;28.25;47.95;100431.88;4974316;28;45519;-78
2021/06/17 00:08:22;;;;;;;;;10.00;9.50;;;;;28.25;48.98;100431.88;4975897;28;45529;-77
2021/06/17 00:10:49;;;;;;;;;9.50;9.50;;;;;28.21;49.50;100442.22;4976551;28;45324;-77
2021/06/17 00:13:22;;;;;;;;;8.00;8.00;;;;;28.19;49.40;100435.31;4975426;28;46587;-77
2021/06/17 00:15:49;;;;;;;;;12.25;11.50;;;;;28.18;49.71;100439.88;4975151;28;45366;-77
2021/06/17 00:18:16;;;;;;;;;8.25;8.25;;;;;28.13;50.06;100445.00;4974824;28;45283;-77
2021/06/17 00:20:42;;;;;;;;;10.50;9.75;;;;;28.11;50.37;100452.47;4975198;28;45407;-77
2021/06/17 00:23:08;;;;;;;;;11.00;11.00;;;;;28.08;49.84;100458.25;4977119;28;45283;-78
2021/06/17 00:25:33;;;;;;;;;10.50;10.50;;;;;28.03;49.51;100450.72;4974744;28;45443;-77
2021/06/17 00:27:59;;;;;;;;;12.75;10.75;;;;;28.00;49.31;100436.75;4973965;28;45757;-78
2021/06/17 00:30:25;;;;;;;;;12.25;10.25;;;;;27.99;49.89;100443.19;4975894;28;45542;-78
2021/06/17 00:32:51;;;;;;;;;9.75;9.75;;;;;27.96;49.40;100436.28;4974901;28;46207;-77
2021/06/17 00:35:17;;;;;;;;;12.50;10.00;;;;;27.98;49.97;100430.66;4975696;28;45598;-78
2021/06/17 00:37:42;;;;;;;;;11.00;10.75;;;;;27.95;49.92;100428.34;4975181;28;45649;-77
2021/06/17 00:40:12;;;;;;;;;9.75;8.00;;;;;27.95;50.12;100428.34;4973850;28;45339;-78
2021/06/17 00:42:39;;;;;;;;;10.00;9.00;;;;;27.93;50.37;100428.56;4974771;28;46528;-77
2021/06/17 00:45:10;;;;;;;;;11.00;10.50;;;;;27.92;50.73;100417.91;4974959;28;45530;-78
2021/06/17 00:47:36;;;;;;;;;10.25;10.25;;;;;27.92;50.82;100423.31;4974849;28;45456;-78
2021/06/17 00:50:03;;;;;;;;;11.00;9.75;;;;;27.87;50.87;100415.78;4976181;28;45896;-78
2021/06/17 00:52:29;;;;;;;;;9.25;9.25;;;;;27.86;51.20;100405.16;4974610;28;46440;-77
2021/06/17 00:54:59;;;;;;;;;9.50;9.50;;;;;27.83;51.02;100391.03;4974807;28;45839;-77
2021/06/17 00:57:24;;;;;;;;;13.00;11.50;;;;;27.80;51.32;100380.59;4974410;28;45304;-77
2021/06/17 00:59:50;;;;;;;;;9.50;9.00;;;;;27.76;51.56;100375.72;4975858;28;45254;-78
2021/06/17 01:02:15;;;;;;;;;9.00;8.75;;;;;27.75;51.54;100380.31;4976200;28;45867;-77
2021/06/17 01:04:41;;;;;;;;;13.75;9.00;;;;;27.74;51.60;100388.59;4972408;28;45429;-77
2021/06/17 01:07:07;;;;;;;;;10.00;10.00;;;;;27.70;51.32;100382.72;4974763;28;45399;-78
2021/06/17 01:09:45;;;;;;;;;10.25;10.25;;;;;27.70;51.80;100379.16;4974250;28;45624;-78
2021/06/17 01:12:14;;;;;;;;;11.00;11.00;;;;;27.67;51.38;100385.78;4973621;28;46516;-78
2021/06/17 01:14:58;;;;;;;;;11.75;11.25;;;;;27.66;50.50;100383.25;4960097;28;45262;-78
2021/06/17 01:17:26;;;;;;;;;9.75;9.75;;;;;27.61;50.54;100380.25;4975755;28;45372;-78
2021/06/17 01:20:02;;;;;;;;;11.25;10.25;;;;;27.64;50.78;100383.44;4974181;28;45483;-78
2021/06/17 01:22:35;;;;;;;;;14.00;14.00;;;;;27.66;50.73;100373.28;4974097;28;46353;-78
2021/06/17 01:25:08;;;;;;;;;12.50;11.00;;;;;27.66;50.28;100367.88;4973943;28;45815;-77
2021/06/17 01:27:54;;;;;;;;;12.25;11.00;;;;;27.65;50.78;100376.16;4974627;28;45517;-78
2021/06/17 01:30:21;;;;;;;;;10.25;9.50;;;;;27.63;50.59;100373.66;4974858;28;45439;-78
2021/06/17 01:32:52;;;;;;;;;9.25;9.00;;;;;27.69;50.63;100389.13;4974350;28;45537;-78
2021/06/17 01:35:22;;;;;;;;;11.25;10.75;;;;;27.68;50.68;100375.81;4974232;28;45305;-77
2021/06/17 01:37:53;;;;;;;;;8.25;8.25;;;;;27.71;50.68;100370.88;4975272;28;45502;-78
2021/06/17 01:40:19;;;;;;;;;10.50;9.00;;;;;27.68;50.37;100370.41;4974097;28;45468;-78
2021/06/17 01:42:45;;;;;;;;;9.25;9.25;;;;;27.67;50.48;100377.69;4975163;28;45454;-77
2021/06/17 01:45:11;;;;;;;;;13.75;12.00;;;;;27.71;50.34;100406.00;4971803;28;45603;-77
2021/06/17 01:47:37;;;;;;;;;14.25;11.25;;;;;27.70;50.74;100471.81;4974061;28;45381;-77
2021/06/17 01:50:05;;;;;;;;;12.00;12.00;;;;;27.70;50.91;100581.66;4975170;28;46235;-78
2021/06/17 01:52:33;;;;;;;;;15.75;12.50;;;;;27.60;51.93;100608.88;4973575;28;46546;-77
2021/06/17 01:55:00;;;;;;;;;7.25;7.00;;;;;27.37;52.37;100591.84;4972810;28;45538;-79
2021/06/17 01:57:27;;;;;;;;;8.50;4.75;;;;;27.02;52.65;100639.88;4973888;28;45485;-79
2021/06/17 01:59:53;;;;;;;;;4.50;4.00;;;;;26.56;63.58;100637.00;4973993;28;45550;-80
2021/06/17 02:02:20;;;;;;;;;3.50;3.50;;;;;25.82;60.98;100630.81;4975347;28;46441;-79
2021/06/17 02:04:47;;;;;;;;;2.00;2.00;;;;;25.27;59.88;100611.66;4971760;28;45515;-80
2021/06/17 02:07:14;;;;;;;;;1.75;1.75;;;;;24.97;60.14;100595.09;4973037;28;45503;-78
2021/06/17 02:09:40;;;;;;;;;2.25;2.25;;;;;24.81;60.60;100576.22;4968157;28;45609;-79
2021/06/17 02:12:06;;;;;;;;;3.25;1.50;;;;;24.73;61.46;100575.16;4988678;28;46504;-80
2021/06/17 02:14:33;;;;;;;;;3.00;3.00;;;;;24.69;61.67;100559.50;4973754;28;45401;-77
2021/06/17 02:17:01;;;;;;;;;2.00;2.00;;;;;24.62;61.48;100559.31;4974998;28;45443;-77
2021/06/17 02:19:31;;;;;;;;;2.00;2.00;;;;;24.49;61.63;100568.84;4973293;28;45466;-77
2021/06/17 02:22:00;;;;;;;;;6.00;3.00;;;;;24.47;63.12;100603.91;4971881;28;45559;-78
2021/06/17 02:24:27;;;;;;;;;3.00;2.50;;;;;24.46;62.92;100611.13;4973235;28;45811;-79
2021/06/17 02:26:59;;;;;;;;;4.00;4.00;;;;;24.44;62.70;100658.81;4973061;28;45753;-78
2021/06/17 02:29:26;;;;;;;;;8.50;3.50;;;;;24.45;62.59;100751.00;4973830;28;45606;-80
2021/06/17 02:31:55;;;;;;;;;7.00;4.50;;;;;24.35;62.63;100854.97;4973740;28;46599;-79
2021/06/17 02:34:24;;;;;;;;;6.50;4.50;;;;;24.23;65.17;100838.22;4972680;28;45454;-79
2021/06/17 02:36:51;;;;;;;;;6.75;6.00;;;;;23.99;71.76;100854.88;4972512;28;45514;-79
2021/06/17 02:39:20;;;;;;;;;11.75;7.50;;;;;23.48;75.66;100837.44;4973447;28;45456;-79
2021/06/17 02:41:52;;;;;;;;;8.25;7.00;;;;;23.01;76.13;100807.09;4972944;28;46612;-78
2021/06/17 02:44:21;;;;;;;;;8.75;7.25;;;;;22.71;75.33;100800.94;4974446;28;46076;-77
2021/06/17 02:46:46;;;;;;;;;10.00;6.00;;;;;22.50;74.48;100766.25;4974363;28;45383;-76
2021/06/17 02:49:12;;;;;;;;;9.00;6.50;;;;;22.43;73.45;100759.75;4973054;28;45464;-77
2021/06/17 02:51:38;;;;;;;;;6.25;6.00;;;;;22.29;73.32;100733.41;4972661;28;45411;-77
2021/06/17 02:54:03;;;;;;;;;6.75;5.75;;;;;22.27;73.85;100728.19;4969252;28;45918;-77
2021/06/17 02:56:43;;;;;;;;;8.00;7.00;;;;;22.22;74.76;100708.19;4972882;28;45447;-76
2021/06/17 02:59:20;;;;;;;;;7.25;5.75;;;;;22.23;74.59;100729.47;4970701;28;45379;-77
2021/06/17 03:02:01;;;;;;;;;7.25;6.00;;;;;22.23;73.97;100726.78;4973500;28;45416;-78
2021/06/17 03:04:48;;;;;;;;;7.50;5.50;;;;;22.32;73.63;100728.63;4968048;28;45360;-77
2021/06/17 03:07:20;;;;;;;;;9.75;7.50;;;;;22.37;83.70;100722.84;4973185;28;45414;-77
2021/06/17 03:09:48;;;;;;;;;9.00;8.00;;;;;22.44;82.31;100715.94;4972535;28;45382;-76
2021/06/17 03:12:20;;;;;;;;;6.00;5.00;;;;;22.53;80.11;100699.00;4972815;28;46452;-76
2021/06/17 03:14:49;;;;;;;;;6.75;5.75;;;;;22.65;78.79;100681.75;4971987;28;45657;-77
2021/06/17 03:17:19;;;;;;;;;7.00;7.00;;;;;22.72;78.10;100657.09;4974662;28;45310;-77
2021/06/17 03:19:48;;;;;;;;;9.00;7.75;;;;;22.82;77.29;100645.34;4974045;28;45417;-77
2021/06/17 03:22:15;;;;;;;;;8.50;7.00;;;;;22.93;75.94;100641.66;4966816;28;45407;-76
2021/06/17 03:24:45;;;;;;;;;7.25;6.00;;;;;23.06;72.86;100634.13;4967267;28;45391;-76
2021/06/17 03:27:11;;;;;;;;;10.00;10.00;;;;;23.12;71.89;100640.72;4972502;28;45624;-77
2021/06/17 03:29:41;;;;;;;;;7.75;6.75;;;;;23.14;71.85;100642.28;4973094;28;45506;-77
2021/06/17 03:32:10;;;;;;;;;8.50;7.00;;;;;23.21;71.64;100666.63;4974463;28;45534;-76
2021/06/17 03:34:38;;;;;;;;;6.50;6.25;;;;;23.23;70.32;100662.00;4973651;28;45657;-76
2021/06/17 03:37:04;;;;;;;;;8.00;8.00;;;;;23.26;69.78;100636.69;4976832;28;45460;-78
2021/06/17 03:39:31;;;;;;;;;8.50;7.25;;;;;23.24;69.98;100628.81;4974820;28;45614;-77
2021/06/17 03:42:00;;;;;;;;;9.25;7.25;;;;;23.25;70.76;100605.53;4975815;28;47908;-77
2021/06/17 03:44:28;;;;;;;;;8.75;7.50;;;;;23.21;70.79;100580.00;4976079;28;45451;-77
2021/06/17 03:46:56;;;;;;;;;8.25;7.25;;;;;23.17;70.61;100553.47;4975420;28;45553;-77
2021/06/17 03:49:23;;;;;;;;;8.75;7.00;;;;;23.23;70.31;100556.56;4976125;28;45525;-78
2021/06/17 03:51:49;;;;;;;;;9.25;7.00;;;;;23.22;70.67;100569.13;4974248;28;45691;-78
2021/06/17 03:54:23;;;;;;;;;11.50;6.00;;;;;23.23;70.21;100596.75;4974652;28;45693;-77
2021/06/17 03:57:07;;;;;;;;;8.75;7.50;;;;;23.19;69.05;100623.06;4974920;28;45854;-77
2021/06/17 03:59:38;;;;;;;;;7.75;6.00;;;;;23.18;70.56;100618.69;4975239;28;45901;-77
2021/06/17 04:02:05;;;;;;;;;10.25;10.00;;;;;23.18;70.33;100608.81;4975296;28;45430;-77
2021/06/17 04:04:30;;;;;;;;;8.00;7.00;;;;;23.23;70.70;100620.91;4979048;28;45949;-77
2021/06/17 04:06:58;;;;;;;;;8.00;8.00;;;;;23.24;70.19;100617.25;4980288;28;45649;-77
2021/06/17 04:09:28;;;;;;;;;9.75;8.00;;;;;23.20;70.71;100624.75;4975609;28;45550;-77
2021/06/17 04:12:02;;;;;;;;;8.50;8.25;;;;;23.21;70.30;100610.34;4977636;28;46213;-77
2021/06/17 04:14:30;;;;;;;;;9.00;7.75;;;;;23.20;70.95;100597.09;4978035;28;45457;-78
2021/06/17 04:16:55;;;;;;;;;11.00;8.25;;;;;23.21;70.97;100558.56;4975294;28;45652;-78
2021/06/17 04:19:24;;;;;;;;;11.00;9.25;;;;;23.23;71.45;100556.56;4978766;28;45453;-78
2021/06/17 04:21:52;;;;;;;;;7.50;7.50;;;;;23.23;71.67;100572.63;4971480;28;45509;-78
2021/06/17 04:24:23;;;;;;;;;10.50;8.00;;;;;23.20;71.17;100578.31;4975087;28;45651;-78
2021/06/17 04:26:51;;;;;;;;;10.00;8.25;;;;;23.22;70.82;100587.88;4973797;28;45658;-78
2021/06/17 04:29:18;;;;;;;;;12.50;8.50;;;;;23.21;70.72;100590.72;4976484;28;45518;-78
2021/06/17 04:31:45;;;;;;;;;8.00;6.50;;;;;23.21;70.73;100594.25;4975503;28;45736;-78
2021/06/17 04:34:11;;;;;;;;;8.00;8.00;;;;;23.23;71.00;100600.31;4972673;28;45344;-79
2021/06/17 04:36:38;;;;;;;;;11.50;10.00;;;;;23.21;70.48;100593.41;4975458;28;45439;-78
2021/06/17 04:39:04;;;;;;;;;7.50;6.50;;;;;23.23;70.60;100602.13;4974749;28;45538;-77
2021/06/17 04:41:30;;;;;;;;;8.75;7.75;;;;;23.22;70.91;100598.59;4974429;28;45619;-78
2021/06/17 04:43:55;;;;;;;;;9.75;8.75;;;;;23.22;70.94;100595.09;4974319;28;45399;-78
2021/06/17 04:46:23;;;;;;;;;8.50;7.00;;;;;23.29;70.49;100588.16;4973410;28;45483;-78
2021/06/17 04:48:50;;;;;;;;;8.00;7.50;;;;;23.30;70.90;100587.97;4973198;28;45453;-78
2021/06/17 04:51:17;;;;;;;;;7.50;7.50;;;;;23.34;71.59;100583.16;4974577;28;45420;-78
2021/06/17 04:53:42;;;;;;;;;9.50;8.50;;;;;23.36;71.51;100562.41;4974532;28;45367;-79
2021/06/17 04:56:08;;;;;;;;;9.50;7.25;;;;;23.43;71.53;100582.22;4976445;28;45486;-79
2021/06/17 04:58:35;;;;;;;;;9.75;8.25;;;;;23.49;71.55;100605.78;4974836;28;45599;-78
2021/06/17 05:01:05;;;;;;;;;9.75;9.75;;;;;23.53;71.44;100593.72;4974225;28;47186;-78
2021/06/17 05:03:30;;;;;;;;;11.75;9.75;;;;;23.57;71.46;100596.97;4975153;28;45328;-78
2021/06/17 05:05:58;;;;;;;;;7.00;7.00;;;;;23.57;70.71;100610.38;4973737;28;45479;-78
2021/06/17 05:10:52;;;;;;;;;10.75;7.25;;;;;23.44;69.97;100600.88;4975889;28;46001;-78
2021/06/17 05:13:29;;;;;;;;;11.25;8.75;;;;;23.40;70.24;100594.13;4973247;28;45568;-78
2021/06/17 05:15:56;;;;;;;;;9.00;7.50;;;;;23.35;70.41;100590.22;4972414;28;45464;-78
2021/06/17 05:18:22;;;;;;;;;11.25;10.00;;;;;23.28;70.75;100581.91;4974740;28;45465;-78
2021/06/17 05:20:49;;;;;;;;;12.75;8.25;;;;;23.30;70.83;100582.63;4974052;28;45653;-78
2021/06/17 05:23:18;;;;;;;;;11.25;11.00;;;;;23.34;71.27;100584.00;4976110;28;45755;-78
2021/06/17 05:25:44;;;;;;;;;13.75;10.50;;;;;23.42;71.24;100580.56;4976325;28;45305;-78
2021/06/17 05:28:13;;;;;;;;;10.00;8.00;;;;;23.50;70.99;100580.66;4974176;28;45430;-78
2021/06/17 05:30:40;;;;;;;;;8.00;8.00;;;;;23.63;70.05;100609.78;4973944;28;45601;-77
2021/06/17 05:33:05;;;;;;;;;12.75;11.00;;;;;23.72;70.38;100610.72;4972989;28;45591;-77
2021/06/17 05:35:30;;;;;;;;;9.50;7.00;;;;;23.78;70.20;100623.50;4971327;28;45518;-75
2021/06/17 05:37:56;;;;;;;;;13.25;12.00;;;;;23.78;70.55;100627.03;4975584;28;45542;-75
2021/06/17 05:40:21;;;;;;;;;17.00;13.75;;;;;23.88;70.22;100632.31;4974043;28;46303;-75
2021/06/17 05:42:47;;;;;;;;;11.75;9.00;;;;;24.17;69.89;100629.34;4972251;28;45384;-74
2021/06/17 05:45:13;;;;;;;;;11.75;9.00;;;;;24.80;69.35;100628.28;4972666;28;45491;-75
2021/06/17 05:47:39;;;;;;;;;10.25;9.50;;;;;25.50;67.08;100627.03;4973503;28;45581;-75
2021/06/17 05:50:06;;;;;;;;;9.00;7.50;;;;;26.07;66.23;100631.66;4975226;28;45393;-75
2021/06/17 05:52:31;;;;;;;;;6.50;6.50;;;;;26.47;64.60;100630.81;4972987;28;45379;-74
2021/06/17 05:54:56;;;;;;;;;10.00;7.25;;;;;26.75;64.32;100644.69;4973409;28;45435;-75
2021/06/17 05:57:21;;;;;;;;;7.75;7.50;;;;;27.00;63.13;100647.31;4973364;28;45463;-76
2021/06/17 05:59:47;;;;;;;;;8.25;7.25;;;;;27.00;62.25;100647.31;4973904;28;46274;-75
2021/06/17 06:02:12;;;;;;;;;5.75;5.50;;;;;26.88;62.40;100654.94;4974959;28;45420;-74
2021/06/17 06:04:37;;;;;;;;;6.00;6.00;;;;;26.73;62.27;100654.00;4972147;28;45547;-75
2021/06/17 06:07:03;;;;;;;;;7.75;6.00;;;;;26.70;62.76;100668.66;4973777;28;45534;-75
2021/06/17 06:09:29;;;;;;;;;9.00;9.00;;;;;26.65;62.74;100678.25;4973135;28;46482;-75
2021/06/17 06:11:54;;;;;;;;;9.00;7.25;;;;;26.57;62.43;100692.56;4973552;28;45316;-75
2021/06/17 06:14:19;;;;;;;;;8.50;8.00;;;;;26.48;62.77;100696.31;4975296;28;45827;-75
2021/06/17 06:16:45;;;;;;;;;9.50;8.00;;;;;26.43;62.60;100714.84;4974418;28;45462;-76
2021/06/17 06:19:10;;;;;;;;;9.00;8.00;;;;;26.28;62.77;100704.72;4973983;28;46325;-75
2021/06/17 06:21:36;;;;;;;;;8.00;6.75;;;;;26.27;63.07;100710.28;4973951;28;45359;-75
2021/06/17 06:24:02;;;;;;;;;7.25;7.25;;;;;26.25;62.95;100713.13;4973227;28;45502;-75
2021/06/17 06:26:27;;;;;;;;;10.25;9.00;;;;;26.34;63.48;100711.28;4973815;28;45428;-74
2021/06/17 06:28:52;;;;;;;;;12.50;8.75;;;;;26.40;63.43;100721.38;4974531;28;45446;-75
2021/06/17 06:31:18;;;;;;;;;7.00;7.00;;;;;26.48;63.08;100726.81;4973256;28;45395;-74
2021/06/17 06:33:43;;;;;;;;;10.00;7.00;;;;;26.42;62.57;100738.25;4972881;28;45462;-74
2021/06/17 06:36:08;;;;;;;;;7.50;6.00;;;;;26.30;62.72;100739.56;4973159;28;45416;-76
2021/06/17 06:38:34;;;;;;;;;6.00;6.00;;;;;26.23;63.10;100730.47;4974054;28;46242;-75
2021/06/17 06:40:59;;;;;;;;;9.00;6.25;;;;;26.23;62.40;100741.25;4974265;28;45235;-75
2021/06/17 06:43:25;;;;;;;;;7.25;6.50;;;;;26.38;62.92;100736.88;4973270;28;45506;-75
2021/06/17 06:45:51;;;;;;;;;8.00;5.25;;;;;26.53;62.78;100740.63;4972171;28;45385;-75
2021/06/17 06:48:17;;;;;;;;;6.50;6.00;;;;;26.68;62.53;100748.03;4972737;28;46478;-75
2021/06/17 06:50:42;;;;;;;;;5.00;5.00;;;;;26.82;62.12;100747.31;4973675;28;45622;-75
2021/06/17 06:53:08;;;;;;;;;6.00;6.00;;;;;26.97;61.04;100764.47;4972452;28;45479;-75
2021/06/17 06:55:33;;;;;;;;;9.50;8.00;;;;;26.90;60.65;100759.94;4972767;28;45360;-75
2021/06/17 06:57:59;;;;;;;;;9.25;8.00;;;;;26.75;61.45;100767.88;4972481;28;45474;-75
2021/06/17 07:00:24;;;;;;;;;6.25;5.75;;;;;26.63;61.54;100764.69;4973152;28;45581;-75
2021/06/17 07:02:50;;;;;;;;;6.25;6.00;;;;;26.55;61.46;100759.31;4971573;28;45540;-75
2021/06/17 07:05:16;;;;;;;;;6.00;6.00;;;;;26.41;61.67;100763.47;4974030;28;45459;-75
2021/06/17 07:07:41;;;;;;;;;7.00;5.75;;;;;26.26;61.42;100760.63;4973471;28;45362;-75
2021/06/17 07:10:07;;;;;;;;;7.00;6.00;;;;;26.19;61.41;100762.28;4974441;28;45544;-76
2021/06/17 07:12:33;;;;;;;;;8.00;6.25;;;;;26.31;61.99;100764.66;4975909;28;46029;-75
2021/06/17 07:14:59;;;;;;;;;6.50;6.25;;;;;26.41;61.99;100768.03;4976355;28;45629;-75
2021/06/17 07:17:25;;;;;;;;;7.75;6.00;;;;;26.57;61.51;100773.44;4975685;28;48527;-75
2021/06/17 07:19:52;;;;;;;;;6.00;4.00;;;;;26.71;60.65;100766.53;4975357;28;45376;-75
2021/06/17 07:22:18;;;;;;;;;10.25;8.25;;;;;26.80;60.91;100777.16;4974712;28;45580;-75
2021/06/17 07:24:44;;;;;;;;;8.50;8.00;;;;;26.92;60.55;100793.81;4976918;28;45341;-75
2021/06/17 07:27:09;;;;;;;;;9.50;8.25;;;;;26.96;60.02;100776.28;4975180;28;46351;-75
2021/06/17 07:29:35;;;;;;;;;9.00;7.25;;;;;27.03;60.11;100784.50;4975979;28;45347;-75
2021/06/17 07:32:02;;;;;;;;;5.75;5.00;;;;;27.05;59.59;100780.66;4976859;28;45383;-75
2021/06/17 07:34:27;;;;;;;;;9.75;8.00;;;;;27.02;59.45;100802.56;4975783;28;45516;-75
2021/06/17 07:36:53;;;;;;;;;9.00;5.00;;;;;26.99;59.80;100805.63;4976004;28;50837;-75
2021/06/17 07:39:19;;;;;;;;;7.25;7.00;;;;;27.08;59.72;100809.16;4975469;28;45496;-75
2021/06/17 07:41:44;;;;;;;;;6.25;5.00;;;;;27.44;59.38;100806.88;4975751;28;45412;-75
2021/06/17 07:44:10;;;;;;;;;8.25;8.00;;;;;27.70;58.60;100801.22;4977626;28;45399;-75
2021/06/17 07:46:35;;;;;;;;;4.25;3.25;;;;;27.91;57.44;100791.69;4974931;28;45456;-75
2021/06/17 07:49:01;;;;;;;;;4.00;4.00;;;;;28.16;57.96;100795.06;4976026;28;45479;-76
2021/06/17 07:51:28;;;;;;;;;6.00;5.00;;;;;28.38;56.35;100791.56;4974423;28;45668;-75
2021/06/17 07:53:59;;;;;;;;;6.75;6.00;;;;;28.50;56.67;100792.81;4974819;28;45530;-75
2021/06/17 07:56:25;;;;;;;;;5.75;5.00;;;;;29.14;56.20;100788.88;4975293;28;46514;-75
2021/06/17 07:58:51;;;;;;;;;5.25;5.25;;;;;30.22;54.64;100783.59;4976262;28;45321;-75
2021/06/17 08:01:16;;;;;;;;;6.50;5.50;;;;;31.44;53.07;100792.34;4974838;28;45795;-75
2021/06/17 08:03:41;;;;;;;;;6.00;5.00;;;;;33.09;51.36;100788.28;4974579;28;45456;-76
2021/06/17 08:06:07;;;;;;;;;3.50;3.50;;;;;35.38;47.30;100791.91;4975406;28;46119;-76
2021/06/17 08:08:32;;;;;;;;;4.00;3.00;;;;;36.63;42.76;100783.91;4974145;28;45556;-76
2021/06/17 08:10:57;;;;;;;;;2.50;1.50;;;;;37.83;41.80;100798.94;4976370;28;45423;-77
2021/06/17 08:13:23;;;;;;;;;5.00;3.75;;;;;39.17;39.25;100802.88;4974602;28;45486;-76
2021/06/17 08:15:49;;;;;;;;;6.75;3.75;;;;;39.38;38.11;100794.69;4975015;28;45494;-76
2021/06/17 08:18:14;;;;;;;;;3.00;3.00;;;;;40.32;37.21;100801.00;4974850;28;45653;-77
2021/06/17 08:20:40;;;;;;;;;3.00;3.00;;;;;40.65;35.31;100803.47;4976329;28;45379;-77
2021/06/17 08:23:05;;;;;;;;;3.00;3.00;;;;;40.05;34.36;100807.31;4976048;28;45335;-77
2021/06/17 08:25:32;;;;;;;;;1.25;1.25;;;;;38.75;35.46;100811.63;4974558;28;46395;-77
2021/06/17 08:28:01;;;;;;;;;6.00;3.00;;;;;37.64;35.76;100809.22;4974826;28;45551;-77
2021/06/17 08:30:27;;;;;;;;;3.75;2.00;;;;;38.59;36.53;100805.84;4975138;28;45787;-77
2021/06/17 08:32:52;;;;;;;;;4.25;3.00;;;;;39.67;35.18;100813.75;4974461;28;45477;-77
2021/06/17 08:35:18;;;;;;;;;3.50;2.00;;;;;41.37;33.60;100802.06;4976735;28;46095;-76
2021/06/17 08:37:44;;;;;;;;;5.00;2.00;;;;;43.33;29.11;100801.94;4975009;28;46558;-76
2021/06/17 08:40:10;;;;;;;;;2.00;2.00;;;;;44.25;27.66;100819.75;4972947;28;45605;-77
2021/06/17 08:42:35;;;;;;;;;2.00;2.00;;;;;43.66;28.95;100817.06;4974842;28;45330;-78
2021/06/17 08:45:06;;;;;;;;;2.25;2.25;;;;;44.29;29.33;100814.47;4974286;28;45816;-77
2021/06/17 08:47:33;;;;;;;;;1.50;0.00;;;;;43.98;27.42;100822.16;4973444;28;45520;-76
2021/06/17 08:50:01;;;;;;;;;4.00;2.00;;;;;43.13;28.37;100820.28;4976398;28;45475;-78
2021/06/17 08:52:33;;;;;;;;;1.00;1.00;;;;;43.14;28.72;100818.34;4974588;28;45483;-77
2021/06/17 08:55:10;;;;;;;;;5.00;1.50;;;;;41.93;27.09;100826.28;4974411;28;49683;-76
2021/06/17 08:57:35;;;;;;;;;3.25;2.00;;;;;40.11;29.23;100831.06;4974899;28;45469;-77
2021/06/17 09:00:01;;;;;;;;;3.00;3.00;;;;;38.79;30.42;100830.09;4973967;28;45525;-77
2021/06/17 09:02:32;;;;;;;;;2.00;2.00;;;;;37.53;32.44;100827.38;4973523;28;45752;-77
2021/06/17 09:05:14;;;;;;;;;3.75;3.00;;;;;37.40;33.11;100827.66;4970048;28;45781;-77
2021/06/17 09:07:43;;;;;;;;;2.50;1.50;;;;;37.25;33.08;100824.53;4973948;28;45629;-77
2021/06/17 09:10:09;;;;;;;;;2.25;2.25;;;;;37.32;33.25;100820.59;4974016;28;45358;-77
2021/06/17 09:12:43;;;;;;;;;2.00;2.00;;;;;37.59;33.28;100823.69;4973364;28;45498;-75
2021/06/17 09:15:08;;;;;;;;;4.25;3.00;;;;;38.22;32.81;100816.44;4961090;28;45477;-76
2021/06/17 09:17:34;;;;;;;;;3.00;3.00;;;;;38.75;32.21;100819.84;4972895;28;45404;-76
2021/06/17 09:19:59;;;;;;;;;4.00;3.00;;;;;38.68;31.92;100830.13;4974116;28;45893;-77
2021/06/17 09:22:26;;;;;;;;;3.25;2.25;;;;;37.83;32.68;100837.34;4974130;28;45757;-75
2021/06/17 09:24:55;;;;;;;;;2.25;2.25;;;;;37.69;33.01;100835.91;4973302;28;47152;-76
2021/06/17 09:27:21;;;;;;;;;2.50;2.50;;;;;38.26;32.40;100836.78;4974925;28;45505;-77
2021/06/17 09:29:48;;;;;;;;;3.00;3.00;;;;;38.78;31.45;100831.16;4973660;28;45445;-76
2021/06/17 09:32:19;;;;;;;;;2.75;2.00;;;;;38.09;32.76;100828.53;4975308;28;45288;-77
2021/06/17 09:34:44;;;;;;;;;5.00;3.25;;;;;37.88;32.45;100820.16;4974144;28;45631;-77
2021/06/17 09:37:32;;;;;;;;;2.25;2.00;;;;;38.75;33.19;100825.34;4972315;28;45505;-77
2021/06/17 09:39:58;;;;;;;;;3.75;3.50;;;;;39.87;32.33;100826.91;4972967;28;45475;-77
2021/06/17 09:42:31;;;;;;;;;2.00;2.00;;;;;40.97;30.72;100834.88;4973333;28;45680;-77
2021/06/17 09:44:58;;;;;;;;;4.00;2.50;;;;;41.77;30.09;100833.69;4973012;28;46541;-78
2021/06/17 09:47:25;;;;;;;;;7.00;3.00;;;;;41.54;28.88;100834.94;4974140;28;46448;-78
2021/06/17 09:49:54;;;;;;;;;3.25;3.00;;;;;40.60;28.88;100839.25;4974798;28;45407;-76
2021/06/17 09:52:19;;;;;;;;;2.50;2.25;;;;;40.03;29.66;100850.75;4974222;28;45332;-77
2021/06/17 09:54:46;;;;;;;;;5.00;2.75;;;;;39.61;30.48;100843.09;4973021;28;45435;-77
2021/06/17 09:57:19;;;;;;;;;2.00;2.00;;;;;39.62;30.76;100838.41;4973246;28;45329;-76
2021/06/17 09:59:46;;;;;;;;;2.50;2.00;;;;;40.08;30.49;100841.75;4976059;28;45403;-77
2021/06/17 10:02:18;;;;;;;;;3.25;2.50;;;;;40.65;29.70;100842.06;4975511;28;45953;-77
2021/06/17 10:04:44;;;;;;;;;2.00;2.00;;;;;41.25;29.40;100836.44;4975091;28;45600;-77
2021/06/17 10:07:10;;;;;;;;;4.75;3.25;;;;;41.25;28.43;100839.19;4974579;28;45625;-77
2021/06/17 10:09:35;;;;;;;;;5.50;2.25;;;;;40.57;28.94;100850.81;4971274;28;45541;-77
2021/06/17 10:12:01;;;;;;;;;3.00;3.00;;;;;40.11;29.25;100839.34;4972010;28;45511;-78
2021/06/17 10:14:28;;;;;;;;;3.75;3.25;;;;;39.75;29.90;100845.50;4970926;28;46298;-77
2021/06/17 10:16:54;;;;;;;;;2.00;2.00;;;;;39.32;30.16;100830.63;4972119;28;45587;-77
2021/06/17 10:19:19;;;;;;;;;3.25;3.25;;;;;39.14;31.09;100838.03;4972030;28;45540;-78
2021/06/17 10:21:46;;;;;;;;;5.50;3.00;;;;;39.01;30.83;100834.81;4971694;28;45428;-78
2021/06/17 10:24:14;;;;;;;;;2.50;2.50;;;;;38.74;31.04;100832.75;4971982;28;45645;-78
2021/06/17 10:26:43;;;;;;;;;2.00;2.00;;;;;38.32;30.84;100829.50;4971873;28;45699;-78
2021/06/17 10:29:33;;;;;;;;;3.00;3.00;;;;;37.88;31.28;100831.13;4968406;28;45614;-78
2021/06/17 10:31:59;;;;;;;;;3.75;3.00;;;;;37.62;32.03;100838.81;4972536;28;45404;-78
2021/06/17 10:37:16;;;;;;;;;5.00;3.00;;;;;37.29;32.34;100818.34;4971199;28;45553;-78
2021/06/17 10:39:58;;;;;;;;;3.25;2.50;;;;;37.12;33.02;100820.16;4971267;28;45337;-78
2021/06/17 10:42:33;;;;;;;;;3.00;3.00;;;;;36.80;32.64;100823.19;4972419;28;45456;-78
2021/06/17 10:45:00;;;;;;;;;2.00;2.00;;;;;36.53;33.43;100817.31;4974312;28;46344;-78
2021/06/17 10:47:38;;;;;;;;;1.75;1.75;;;;;36.23;33.99;100825.56;4976349;28;45725;-78
2021/06/17 10:50:07;;;;;;;;;3.00;2.00;;;;;36.02;33.59;100815.97;4977089;28;45326;-77
2021/06/17 10:52:33;;;;;;;;;2.25;2.25;;;;;35.67;34.60;100818.50;4976444;28;45971;-77
2021/06/17 10:55:03;;;;;;;;;3.25;3.25;;;;;35.48;34.68;100812.22;4975350;28;46180;-78
2021/06/17 10:57:51;;;;;;;;;2.75;2.00;;;;;35.40;35.25;100811.66;4975755;28;45689;-78
2021/06/17 11:00:31;;;;;;;;;3.00;3.00;;;;;35.41;35.14;100819.63;4975989;28;45431;-78
2021/06/17 11:03:05;;;;;;;;;2.75;2.00;;;;;35.58;34.53;100827.25;4975888;28;45569;-77
2021/06/17 11:05:33;;;;;;;;;3.75;3.00;;;;;35.68;34.84;100820.19;4975640;28;45502;-78
2021/06/17 11:08:15;;;;;;;;;3.25;2.75;;;;;36.05;35.05;100814.66;4930982;28;1293852;-77
2021/06/17 11:10:44;;;;;;;;;3.00;3.00;;;;;36.38;33.94;100807.88;4986847;28;45773;-77
2021/06/17 11:13:24;;;;;;;;;3.25;2.00;;;;;36.60;33.83;100817.25;4976411;28;45559;-77
2021/06/17 11:15:49;;;;;;;;;3.75;2.75;;;;;36.57;33.29;100812.22;4976271;28;46108;-77
2021/06/17 11:18:58;;;;;;;;;5.50;2.00;;;;;36.44;33.70;100799.59;4976283;28;45356;-77
2021/06/17 11:21:23;;;;;;;;;4.00;4.00;;;;;36.42;33.62;100809.09;4966430;28;45477;-77
2021/06/17 11:23:52;;;;;;;;;2.75;2.75;;;;;36.42;34.39;100811.84;4976267;28;45476;-77
2021/06/17 11:26:47;;;;;;;;;3.75;2.00;;;;;36.39;33.94;100812.25;4977278;28;46187;-77
2021/06/17 11:29:15;;;;;;;;;4.25;3.75;;;;;36.42;33.92;100801.72;4973546;28;45438;-77
2021/06/17 11:31:46;;;;;;;;;3.25;3.00;;;;;36.66;33.99;100807.25;4975052;28;45530;-78